METAR Data
IDs: Format: Raw Decoded Include TAF

Data at: 1559 UTC 18 Feb 2019

METAR for:KTNU (Newton Muni, IA, US)
Text:KTNU 181555Z AUTO 34011KT 10SM FEW019 M09/M11 A3041 RMK AO2
Temperature: -9.0°C ( 16°F)
Dewpoint:-11.0°C ( 12°F) [RH = 85%]
Pressure (altimeter):30.41 inches Hg (1029.9 mb)
Winds:from the NNW (340 degrees) at 13 MPH (11 knots; 5.7 m/s)
Visibility:10 or more sm (16+ km)
Ceiling:at least 12,000 feet AGL
Clouds: few clouds at 1900 feet AGL
QC Flag:automated observation with no human augmentation